Time;durP1;ratioP1;P1;durP2;ratioP2;P2;SDS_P1;SDS_P2;PMS_P1;PMS_P2;Temp;Humidity;BMP_temperature;BMP_pressure;BME280_temperature;BME280_humidity;BME280_pressure;Samples;Min_cycle;Max_cycle;Signal;HPM_P1;HPM_P2
2023/05/29 00:00:38;;;;;;;;;16.00;15.33;;;;;;;;4651076;30;243042;-89
2023/05/29 00:03:04;;;;;;;;;17.67;15.67;;;;;;;;4074921;30;9739871;-89
2023/05/29 00:05:30;;;;;;;;;16.00;16.00;;;;;;;;4381881;30;6618292;-89
2023/05/29 00:07:55;;;;;;;;;17.75;17.75;;;;;;;;4559443;30;1685640;-89
2023/05/29 00:10:20;;;;;;;;;17.00;17.00;;;;;;;;4681362;30;45393;-91
2023/05/29 00:12:47;;;;;;;;;16.67;14.67;;;;;;;;4651666;30;2521969;-90
2023/05/29 00:15:15;;;;;;;;;18.00;16.25;;;;;;;;3697645;30;7949027;-91
2023/05/29 00:17:43;;;;;;;;;15.00;15.00;;;;;;;;4672532;30;46294;-91
2023/05/29 00:20:16;;;;;;;;;19.50;16.50;;;;;;;;4682500;30;45522;-91
2023/05/29 00:22:41;;;;;;;;;17.00;17.00;;;;;;;;4298597;30;4657283;-89
2023/05/29 00:25:07;;;;;;;;;18.67;17.00;;;;;;;;4662436;30;45210;-89
2023/05/29 00:27:32;;;;;;;;;23.75;23.25;;;;;;;;4653833;30;46104;-90
2023/05/29 00:29:58;;;;;;;;;16.33;16.33;;;;;;;;4671954;30;45426;-90
2023/05/29 00:32:27;;;;;;;;;15.67;15.67;;;;;;;;4672133;30;45455;-90
2023/05/29 00:34:52;;;;;;;;;16.67;16.67;;;;;;;;4670833;30;45541;-90
2023/05/29 00:37:17;;;;;;;;;18.00;18.00;;;;;;;;4659143;30;47119;-89
2023/05/29 00:39:44;;;;;;;;;21.33;19.67;;;;;;;;4685889;30;45269;-89
2023/05/29 00:42:10;;;;;;;;;19.00;19.00;;;;;;;;4679355;30;45401;-89
2023/05/29 00:44:46;;;;;;;;;;;;;;;;;;;;;
2023/05/29 00:47:14;;;;;;;;;18.67;18.67;;;;;;;;4679100;30;74369;-90
2023/05/29 00:49:39;;;;;;;;;18.67;18.67;;;;;;;;4668567;30;45592;-90
2023/05/29 00:52:12;;;;;;;;;17.50;17.50;;;;;;;;4662763;30;124989;-90
2023/05/29 00:54:43;;;;;;;;;21.00;18.00;;;;;;;;4681007;30;45297;-90
2023/05/29 00:57:12;;;;;;;;;21.00;19.33;;;;;;;;4659605;30;47573;-91
2023/05/29 00:59:43;;;;;;;;;17.67;17.67;;;;;;;;4665845;30;45323;-91
2023/05/29 01:02:09;;;;;;;;;18.67;18.67;;;;;;;;4681960;30;45270;-90
2023/05/29 01:04:35;;;;;;;;;18.33;17.33;;;;;;;;4671579;30;45269;-90
2023/05/29 01:07:02;;;;;;;;;15.67;15.00;;;;;;;;4679091;30;45647;-90
2023/05/29 01:09:29;;;;;;;;;18.67;18.33;;;;;;;;4658548;30;45400;-90
2023/05/29 01:12:03;;;;;;;;;20.00;20.00;;;;;;;;4666000;30;45272;-90
2023/05/29 01:14:36;;;;;;;;;19.33;19.33;;;;;;;;4671478;30;45357;-90
2023/05/29 01:17:13;;;;;;;;;17.33;16.67;;;;;;;;4663007;30;47817;-90
2023/05/29 01:19:57;;;;;;;;;16.75;16.75;;;;;;;;4677954;30;45495;-90
2023/05/29 01:22:34;;;;;;;;;20.25;19.75;;;;;;;;4681543;30;45460;-90
2023/05/29 01:25:18;;;;;;;;;21.25;18.25;;;;;;;;4675782;30;45391;-90
2023/05/29 01:27:47;;;;;;;;;19.00;19.00;;;;;;;;4671698;30;45541;-90
2023/05/29 01:30:13;;;;;;;;;15.00;14.00;;;;;;;;4664876;30;45544;-90
2023/05/29 01:32:41;;;;;;;;;12.67;12.67;;;;;;;;4669460;30;45556;-91
2023/05/29 01:35:06;;;;;;;;;18.33;17.33;;;;;;;;4656599;30;45270;-90
2023/05/29 01:37:32;;;;;;;;;15.00;15.00;;;;;;;;4292354;30;6802926;-89
2023/05/29 01:39:57;;;;;;;;;20.33;19.33;;;;;;;;4658517;30;283183;-89
2023/05/29 01:42:25;;;;;;;;;18.33;18.33;;;;;;;;4666843;30;45479;-89
2023/05/29 01:44:51;;;;;;;;;16.50;16.50;;;;;;;;4672602;30;45484;-91
2023/05/29 01:47:16;;;;;;;;;16.00;16.00;;;;;;;;4674654;30;46285;-90
2023/05/29 01:49:44;;;;;;;;;15.33;14.00;;;;;;;;4677015;30;45345;-90
2023/05/29 02:01:22;;;;;;;;;10.33;10.33;;;;;;;;4326278;30;4524579;-91
2023/05/29 02:03:53;;;;;;;;;11.00;11.00;;;;;;;;4163729;30;5858006;-91
2023/05/29 02:06:30;;;;;;;;;9.00;9.00;;;;;;;;4669178;30;45650;-91
2023/05/29 02:08:59;;;;;;;;;10.33;10.33;;;;;;;;4689198;30;45463;-91
2023/05/29 02:11:29;;;;;;;;;9.00;9.00;;;;;;;;4689701;30;45350;-91
2023/05/29 02:14:07;;;;;;;;;;;;;;;;;;;;;
2023/05/29 02:19:41;;;;;;;;;10.80;10.80;;;;;;;;4151471;30;5994549;-90
2023/05/29 02:22:07;;;;;;;;;8.75;8.75;;;;;;;;4156670;30;7818110;-90
2023/05/29 02:24:37;;;;;;;;;11.33;8.00;;;;;;;;4541158;30;2230703;-90
2023/05/29 02:27:03;;;;;;;;;5.67;5.67;;;;;;;;4673992;30;45343;-89
2023/05/29 02:29:28;;;;;;;;;5.67;5.00;;;;;;;;4687574;30;47342;-89
2023/05/29 02:31:54;;;;;;;;;6.67;6.67;;;;;;;;4344488;30;3650744;-89
2023/05/29 02:34:22;;;;;;;;;5.00;5.00;;;;;;;;4585976;30;1217275;-89
2023/05/29 02:36:51;;;;;;;;;13.00;9.00;;;;;;;;4667923;30;45266;-90
2023/05/29 02:39:22;;;;;;;;;7.33;7.33;;;;;;;;4657247;30;46112;-90
2023/05/29 02:41:47;;;;;;;;;5.00;5.00;;;;;;;;3441736;30;15378840;-90
2023/05/29 02:44:12;;;;;;;;;4.67;4.67;;;;;;;;4564590;30;3433735;-89
2023/05/29 02:46:40;;;;;;;;;5.00;5.00;;;;;;;;4419531;30;3373073;-89
2023/05/29 02:49:22;;;;;;;;;8.80;7.40;;;;;;;;4149746;30;4594114;-90
2023/05/29 02:51:48;;;;;;;;;5.00;5.00;;;;;;;;4580247;30;2052862;-89
2023/05/29 02:54:13;;;;;;;;;6.00;6.00;;;;;;;;4655642;30;47470;-89
2023/05/29 02:56:39;;;;;;;;;6.00;6.00;;;;;;;;4663002;30;45484;-89
2023/05/29 02:59:11;;;;;;;;;6.33;6.33;;;;;;;;4679717;30;45544;-89
2023/05/29 03:01:37;;;;;;;;;8.33;8.33;;;;;;;;4658543;30;45552;-89
2023/05/29 03:04:02;;;;;;;;;5.33;5.00;;;;;;;;4678562;30;45278;-89
2023/05/29 03:06:27;;;;;;;;;5.00;5.00;;;;;;;;4678836;30;45238;-89
2023/05/29 03:08:53;;;;;;;;;5.33;5.33;;;;;;;;4685046;30;45372;-89
2023/05/29 03:11:18;;;;;;;;;5.00;5.00;;;;;;;;3932071;30;5775823;-90
2023/05/29 03:13:46;;;;;;;;;7.00;7.00;;;;;;;;4363749;30;3823924;-89
2023/05/29 03:16:11;;;;;;;;;5.75;5.75;;;;;;;;4613159;30;833909;-89
2023/05/29 03:18:36;;;;;;;;;4.00;4.00;;;;;;;;4398497;30;4522251;-89
2023/05/29 03:21:02;;;;;;;;;5.00;5.00;;;;;;;;4518394;30;2813883;-90
2023/05/29 03:23:30;;;;;;;;;4.00;4.00;;;;;;;;4553752;30;2009352;-90
2023/05/29 03:25:55;;;;;;;;;4.00;4.00;;;;;;;;4670045;30;45645;-90
2023/05/29 03:32:00;;;;;;;;;6.00;5.00;;;;;;;;4666032;30;107979;-91
2023/05/29 03:34:26;;;;;;;;;7.20;5.80;;;;;;;;4579316;30;1044739;-91
2023/05/29 03:36:51;;;;;;;;;3.67;3.67;;;;;;;;4669883;30;45274;-89
2023/05/29 03:39:17;;;;;;;;;3.25;3.25;;;;;;;;4599613;30;1649242;-89
2023/05/29 03:41:42;;;;;;;;;3.00;3.00;;;;;;;;4685323;30;101447;-91
2023/05/29 03:44:08;;;;;;;;;4.00;4.00;;;;;;;;4682923;30;46232;-90
2023/05/29 03:46:33;;;;;;;;;4.67;4.67;;;;;;;;4670206;30;45483;-89
2023/05/29 03:48:58;;;;;;;;;5.67;5.67;;;;;;;;4655419;30;45407;-89
2023/05/29 03:51:26;;;;;;;;;5.67;3.67;;;;;;;;4671622;30;45294;-90
2023/05/29 03:53:57;;;;;;;;;7.00;7.00;;;;;;;;4681648;30;46336;-90
2023/05/29 03:56:50;;;;;;;;;5.00;5.00;;;;;;;;4652228;30;45381;-91
2023/05/29 03:59:15;;;;;;;;;7.33;5.67;;;;;;;;4667974;30;45427;-89
2023/05/29 04:01:40;;;;;;;;;4.33;4.00;;;;;;;;3881155;30;4286352;-89
2023/05/29 04:04:05;;;;;;;;;4.00;4.00;;;;;;;;4646512;30;435471;-89
2023/05/29 04:06:31;;;;;;;;;7.33;7.33;;;;;;;;4434181;30;3164333;-89
2023/05/29 04:08:57;;;;;;;;;4.33;4.33;;;;;;;;4247253;30;5026969;-89
2023/05/29 04:11:22;;;;;;;;;6.00;5.00;;;;;;;;4654967;30;46665;-89
2023/05/29 04:17:19;;;;;;;;;5.67;5.67;;;;;;;;4649260;30;46725;-91
2023/05/29 04:19:53;;;;;;;;;3.00;3.00;;;;;;;;4652654;30;132343;-91
2023/05/29 04:22:19;;;;;;;;;6.33;5.33;;;;;;;;4648906;30;45492;-90
2023/05/29 04:24:47;;;;;;;;;5.00;4.33;;;;;;;;4632209;30;151635;-91
2023/05/29 04:27:13;;;;;;;;;3.67;3.67;;;;;;;;4636424;30;46341;-90
2023/05/29 04:29:43;;;;;;;;;10.67;7.33;;;;;;;;4677933;30;45459;-90
2023/05/29 04:32:11;;;;;;;;;3.00;3.00;;;;;;;;4665701;30;131889;-91
2023/05/29 04:34:36;;;;;;;;;5.00;5.00;;;;;;;;4677365;30;45457;-89
2023/05/29 04:37:05;;;;;;;;;5.33;5.33;;;;;;;;4671045;30;45434;-89
2023/05/29 04:39:31;;;;;;;;;3.67;3.67;;;;;;;;4668605;30;45576;-89
2023/05/29 04:41:58;;;;;;;;;4.00;4.00;;;;;;;;4670161;30;45421;-89
2023/05/29 04:44:26;;;;;;;;;3.00;3.00;;;;;;;;4664751;30;48034;-90
2023/05/29 04:46:51;;;;;;;;;7.00;5.00;;;;;;;;4651335;30;45871;-90
2023/05/29 04:49:17;;;;;;;;;3.00;2.00;;;;;;;;4746369;24;45568;-89
2023/05/29 04:51:42;;;;;;;;;3.33;3.33;;;;;;;;4731256;30;45696;-89
2023/05/29 04:54:09;;;;;;;;;9.33;5.33;;;;;;;;4730883;30;47962;-89
2023/05/29 04:56:34;;;;;;;;;3.67;3.67;;;;;;;;4736864;30;45425;-89
2023/05/29 04:58:59;;;;;;;;;4.00;4.00;;;;;;;;4736539;29;47021;-89
2023/05/29 05:01:25;;;;;;;;;4.00;4.00;;;;;;;;4739422;30;45283;-89
2023/05/29 05:03:50;;;;;;;;;2.67;2.67;;;;;;;;4731136;30;46433;-89
2023/05/29 05:06:16;;;;;;;;;3.67;3.67;;;;;;;;4734023;30;45251;-89
2023/05/29 05:08:42;;;;;;;;;7.33;5.67;;;;;;;;4713590;30;536361;-89
2023/05/29 05:11:07;;;;;;;;;6.00;4.67;;;;;;;;4468231;29;3131737;-89
2023/05/29 05:13:32;;;;;;;;;3.00;3.00;;;;;;;;4330491;30;5463774;-89
2023/05/29 05:15:58;;;;;;;;;3.00;3.00;;;;;;;;4726809;30;45534;-89
2023/05/29 05:18:23;;;;;;;;;6.00;6.00;;;;;;;;4732369;30;141970;-90
2023/05/29 05:20:48;;;;;;;;;2.00;2.00;;;;;;;;4727253;30;45303;-90
2023/05/29 05:23:14;;;;;;;;;6.00;5.33;;;;;;;;4726795;30;45795;-90
2023/05/29 05:25:39;;;;;;;;;2.33;2.33;;;;;;;;4731929;30;45533;-90
2023/05/29 05:28:08;;;;;;;;;3.67;3.67;;;;;;;;4736786;30;45400;-90
2023/05/29 05:30:33;;;;;;;;;4.00;3.00;;;;;;;;4725709;30;251303;-90
2023/05/29 05:32:59;;;;;;;;;2.67;2.67;;;;;;;;4731557;30;45459;-90
2023/05/29 05:35:24;;;;;;;;;1.33;1.33;;;;;;;;4691542;30;1339692;-90
2023/05/29 05:37:50;;;;;;;;;2.00;2.00;;;;;;;;4541288;30;2535563;-90
2023/05/29 05:40:15;;;;;;;;;6.00;3.33;;;;;;;;4735679;30;45309;-90
2023/05/29 05:42:40;;;;;;;;;2.00;2.00;;;;;;;;4741524;29;122094;-90
2023/05/29 05:45:06;;;;;;;;;2.00;2.00;;;;;;;;4720218;30;45400;-90
2023/05/29 05:47:32;;;;;;;;;2.00;2.00;;;;;;;;4724932;30;45256;-90
2023/05/29 05:49:57;;;;;;;;;2.00;2.00;;;;;;;;4725269;30;143814;-90
2023/05/29 05:52:23;;;;;;;;;3.67;3.67;;;;;;;;4724133;30;46375;-90
2023/05/29 05:54:48;;;;;;;;;2.00;2.00;;;;;;;;4733453;29;45701;-90
2023/05/29 05:57:17;;;;;;;;;1.00;1.00;;;;;;;;4737753;30;45543;-90
2023/05/29 05:59:45;;;;;;;;;1.33;1.33;;;;;;;;4748396;29;45453;-91
2023/05/29 06:02:10;;;;;;;;;3.00;2.00;;;;;;;;4730410;30;45269;-92
2023/05/29 06:04:41;;;;;;;;;1.40;1.00;;;;;;;;4660539;29;1333757;-92
2023/05/29 06:07:06;;;;;;;;;2.00;2.00;;;;;;;;4737288;30;45513;-90
2023/05/29 06:09:31;;;;;;;;;1.00;1.00;;;;;;;;4724686;30;45417;-90
2023/05/29 06:11:57;;;;;;;;;2.00;2.00;;;;;;;;4724589;30;45439;-90
2023/05/29 06:14:23;;;;;;;;;2.00;2.00;;;;;;;;4739412;30;45408;-89
2023/05/29 06:16:48;;;;;;;;;2.00;2.00;;;;;;;;4731745;29;45441;-89
2023/05/29 06:19:14;;;;;;;;;1.00;1.00;;;;;;;;4755482;29;45633;-90
2023/05/29 06:21:40;;;;;;;;;2.33;2.33;;;;;;;;4729584;29;45410;-89
2023/05/29 06:24:05;;;;;;;;;1.67;1.00;;;;;;;;4737876;30;45668;-90
2023/05/29 06:26:33;;;;;;;;;4.00;3.00;;;;;;;;4727652;30;45316;-91
2023/05/29 06:29:10;;;;;;;;;1.33;1.33;;;;;;;;4752858;29;45573;-91
2023/05/29 06:31:38;;;;;;;;;1.33;1.33;;;;;;;;4730592;29;738994;-91
2023/05/29 06:34:09;;;;;;;;;1.67;1.67;;;;;;;;4736825;30;45694;-91
2023/05/29 06:36:46;;;;;;;;;;;;;;;;;;;;;
2023/05/29 06:39:19;;;;;;;;;1.00;1.00;;;;;;;;4737863;30;64847;-91
2023/05/29 06:41:55;;;;;;;;;5.00;3.00;;;;;;;;4735877;30;46601;-91
2023/05/29 06:44:22;;;;;;;;;2.00;1.00;;;;;;;;4727273;30;45547;-90
2023/05/29 06:46:48;;;;;;;;;2.67;1.00;;;;;;;;4740236;29;45404;-90
2023/05/29 06:49:13;;;;;;;;;1.33;1.33;;;;;;;;4739124;30;45455;-90
2023/05/29 06:51:41;;;;;;;;;3.67;2.67;;;;;;;;4739632;30;47239;-90
2023/05/29 06:54:10;;;;;;;;;2.00;2.00;;;;;;;;4735725;30;45672;-91
2023/05/29 06:56:35;;;;;;;;;2.00;2.00;;;;;;;;4729516;30;45493;-90
2023/05/29 06:59:02;;;;;;;;;1.33;1.33;;;;;;;;4735966;30;45418;-90
2023/05/29 07:01:47;;;;;;;;;2.00;2.00;;;;;;;;4743803;29;47524;-91
2023/05/29 07:04:12;;;;;;;;;1.33;1.33;;;;;;;;4751315;29;45648;-90
2023/05/29 07:06:46;;;;;;;;;1.00;1.00;;;;;;;;4724275;29;45473;-91
2023/05/29 07:09:23;;;;;;;;;1.00;1.00;;;;;;;;4732317;30;45552;-91
2023/05/29 07:11:51;;;;;;;;;1.00;1.00;;;;;;;;4733335;30;48252;-90
2023/05/29 07:14:16;;;;;;;;;1.33;1.33;;;;;;;;4725619;30;45542;-89
2023/05/29 07:43:35;;;;;;;;;2.00;2.00;;;;;;;;5040634;24;45776;-96
2023/05/29 07:54:35;;;;;;;;;1.00;1.00;;;;;;;;5182992;24;46923;-94
2023/05/29 07:57:03;;;;;;;;;0.67;0.67;;;;;;;;4700609;30;47941;-95
2023/05/29 07:59:29;;;;;;;;;1.33;1.33;;;;;;;;4716135;30;45409;-94
2023/05/29 08:04:50;;;;;;;;;3.67;2.00;;;;;;;;4691069;30;45844;-95
2023/05/29 08:07:34;;;;;;;;;;;;;;;;;;;;;
2023/05/29 08:10:02;;;;;;;;;2.33;1.67;;;;;;;;4706286;30;71664;-94
2023/05/29 08:12:28;;;;;;;;;1.00;1.00;;;;;;;;4690652;30;45384;-93
2023/05/29 08:14:53;;;;;;;;;2.00;2.00;;;;;;;;4687153;30;46587;-93
2023/05/29 08:17:18;;;;;;;;;0.33;0.33;;;;;;;;4687562;30;45769;-94
2023/05/29 08:19:43;;;;;;;;;1.67;1.67;;;;;;;;4697382;30;47060;-92
2023/05/29 08:22:12;;;;;;;;;1.67;1.67;;;;;;;;4702033;30;45424;-93
2023/05/29 08:24:37;;;;;;;;;1.00;1.00;;;;;;;;4703343;30;45692;-94
2023/05/29 08:27:02;;;;;;;;;1.00;1.00;;;;;;;;4703272;30;45325;-94
2023/05/29 08:29:28;;;;;;;;;1.67;1.67;;;;;;;;4701943;30;45366;-93
2023/05/29 08:31:53;;;;;;;;;0.00;0.00;;;;;;;;4687101;30;45283;-92
2023/05/29 08:34:21;;;;;;;;;1.00;1.00;;;;;;;;4705722;30;45652;-96
2023/05/29 08:36:46;;;;;;;;;1.00;1.00;;;;;;;;4704209;30;47169;-95
2023/05/29 08:39:38;;;;;;;;;2.00;2.00;;;;;;;;4691445;30;45869;-96
2023/05/29 08:42:07;;;;;;;;;2.00;2.00;;;;;;;;4691150;30;171769;-93
2023/05/29 08:44:35;;;;;;;;;1.33;1.33;;;;;;;;4703018;30;48011;-95
2023/05/29 08:47:02;;;;;;;;;0.33;0.33;;;;;;;;4714958;30;52346;-93
2023/05/29 08:49:29;;;;;;;;;0.67;0.67;;;;;;;;4702923;30;46834;-96
2023/05/29 08:52:02;;;;;;;;;2.00;2.00;;;;;;;;4704991;30;45416;-92
2023/05/29 08:54:31;;;;;;;;;1.00;1.00;;;;;;;;4690561;30;139202;-94
2023/05/29 08:56:57;;;;;;;;;2.00;2.00;;;;;;;;4681206;30;48248;-94
2023/05/29 08:59:23;;;;;;;;;0.67;0.67;;;;;;;;4653358;30;805043;-94
2023/05/29 09:01:48;;;;;;;;;1.33;1.33;;;;;;;;4669677;30;47243;-95
2023/05/29 09:04:13;;;;;;;;;1.00;1.00;;;;;;;;4690878;30;45261;-94
2023/05/29 09:06:41;;;;;;;;;1.00;1.00;;;;;;;;4684881;30;262686;-89
2023/05/29 09:09:06;;;;;;;;;1.00;1.00;;;;;;;;4686928;30;45504;-90
2023/05/29 09:11:32;;;;;;;;;1.00;1.00;;;;;;;;4654325;30;589760;-91
2023/05/29 09:13:58;;;;;;;;;3.00;2.75;;;;;;;;4654744;30;971122;-90
2023/05/29 09:16:23;;;;;;;;;1.00;1.00;;;;;;;;4670930;30;46846;-92
2023/05/29 09:18:48;;;;;;;;;1.00;1.00;;;;;;;;4681473;30;79631;-89
2023/05/29 09:21:27;;;;;;;;;2.67;1.67;;;;;;;;4685436;30;48168;-89
2023/05/29 09:26:56;;;;;;;;;2.67;2.67;;;;;;;;4717217;24;46025;-94
2023/05/29 09:29:22;;;;;;;;;1.00;1.00;;;;;;;;4703101;30;45491;-79
2023/05/29 09:31:47;;;;;;;;;1.00;1.00;;;;;;;;4698401;30;70782;-91
2023/05/29 09:34:15;;;;;;;;;2.00;2.00;;;;;;;;4663733;30;621725;-94
2023/05/29 09:36:41;;;;;;;;;2.00;2.00;;;;;;;;4701710;30;45515;-93
2023/05/29 09:39:09;;;;;;;;;3.00;1.67;;;;;;;;4680397;30;340825;-94
2023/05/29 09:41:52;;;;;;;;;1.00;1.00;;;;;;;;4704530;30;45276;-94
2023/05/29 09:44:17;;;;;;;;;2.67;2.67;;;;;;;;4698242;30;260075;-94
2023/05/29 09:46:43;;;;;;;;;1.75;1.75;;;;;;;;4401861;30;4201621;-93
2023/05/29 09:49:12;;;;;;;;;1.00;1.00;;;;;;;;4706531;30;45465;-94
2023/05/29 09:51:40;;;;;;;;;2.00;2.00;;;;;;;;4705051;30;97127;-93
2023/05/29 09:54:16;;;;;;;;;1.00;1.00;;;;;;;;4698030;30;159404;-93
2023/05/29 09:56:47;;;;;;;;;1.00;1.00;;;;;;;;4637476;30;651390;-93
2023/05/29 09:59:13;;;;;;;;;1.00;1.00;;;;;;;;4673639;30;486380;-91
2023/05/29 10:01:42;;;;;;;;;1.00;1.00;;;;;;;;4674315;30;542785;-93
2023/05/29 10:04:11;;;;;;;;;2.00;2.00;;;;;;;;4632771;30;920474;-93
2023/05/29 10:06:49;;;;;;;;;2.00;2.00;;;;;;;;4059125;30;5649170;-95
2023/05/29 10:09:16;;;;;;;;;2.00;2.00;;;;;;;;4581054;30;1199981;-93
2023/05/29 10:11:43;;;;;;;;;1.00;1.00;;;;;;;;4631413;30;1168402;-94
2023/05/29 10:14:09;;;;;;;;;2.33;2.33;;;;;;;;4702232;30;202887;-93
2023/05/29 10:16:41;;;;;;;;;2.67;2.67;;;;;;;;4705367;30;46390;-93
2023/05/29 10:27:59;;;;;;;;;1.33;1.33;;;;;;;;5431777;24;45931;-90
2023/05/29 10:38:15;;;;;;;;;3.00;3.00;;;;;;;;4839012;24;45848;-89
2023/05/29 10:40:40;;;;;;;;;1.33;1.33;;;;;;;;4704786;30;45700;-93
2023/05/29 10:43:09;;;;;;;;;1.67;1.67;;;;;;;;4710914;30;45229;-90
2023/05/29 10:45:37;;;;;;;;;2.67;2.67;;;;;;;;4722596;30;45464;-88
2023/05/29 10:48:08;;;;;;;;;0.00;0.00;;;;;;;;4722427;30;46541;-89
2023/05/29 10:50:38;;;;;;;;;2.00;2.00;;;;;;;;4721854;30;45558;-88
2023/05/29 10:53:03;;;;;;;;;1.33;1.33;;;;;;;;4720707;30;45362;-88
2023/05/29 10:55:35;;;;;;;;;2.00;2.00;;;;;;;;4698379;30;405228;-88
2023/05/29 10:58:06;;;;;;;;;2.00;2.00;;;;;;;;4711195;30;46015;-89
2023/05/29 11:00:32;;;;;;;;;2.67;2.67;;;;;;;;4714628;30;45496;-88
2023/05/29 11:03:01;;;;;;;;;2.00;2.00;;;;;;;;4718973;30;45493;-88
2023/05/29 11:05:27;;;;;;;;;4.33;2.67;;;;;;;;4723269;30;45488;-90
2023/05/29 11:07:53;;;;;;;;;1.67;1.67;;;;;;;;4707758;30;46124;-90
2023/05/29 11:10:38;;;;;;;;;1.00;1.00;;;;;;;;4694095;30;834072;-90
2023/05/29 11:13:05;;;;;;;;;3.00;3.00;;;;;;;;4723687;30;45341;-90
2023/05/29 11:15:30;;;;;;;;;2.00;2.00;;;;;;;;4707852;30;184065;-88
2023/05/29 11:18:05;;;;;;;;;3.00;2.00;;;;;;;;4717097;30;59139;-88
2023/05/29 11:20:33;;;;;;;;;2.25;2.25;;;;;;;;4679190;30;814847;-89
2023/05/29 11:22:58;;;;;;;;;1.25;1.25;;;;;;;;4475190;30;2688453;-88
2023/05/29 11:25:23;;;;;;;;;2.67;2.00;;;;;;;;4314182;30;6173883;-89
2023/05/29 11:27:49;;;;;;;;;2.00;2.00;;;;;;;;4622274;30;1248361;-88
2023/05/29 11:30:14;;;;;;;;;1.33;1.33;;;;;;;;4678799;30;1372138;-88
2023/05/29 11:32:40;;;;;;;;;2.00;2.00;;;;;;;;4491976;30;1986375;-89
2023/05/29 11:35:09;;;;;;;;;2.00;2.00;;;;;;;;4723789;30;45374;-89
2023/05/29 11:37:35;;;;;;;;;2.00;2.00;;;;;;;;4719413;30;45771;-89
2023/05/29 11:40:03;;;;;;;;;3.67;3.33;;;;;;;;4722941;30;45348;-89
2023/05/29 11:42:29;;;;;;;;;1.33;1.33;;;;;;;;4722353;30;45428;-89
2023/05/29 11:44:54;;;;;;;;;1.33;1.33;;;;;;;;4718149;30;45762;-88
2023/05/29 11:47:22;;;;;;;;;1.00;1.00;;;;;;;;4704020;30;46389;-88
2023/05/29 11:49:47;;;;;;;;;2.00;2.00;;;;;;;;4718664;30;45443;-81
2023/05/29 12:25:43;;;;;;;;;;;;;;;;;;;;;
2023/05/29 12:44:30;;;;;;;;;;;;;;;;;;;;;
2023/05/29 12:47:20;;;;;;;;;;;;;;;;;;;;;
2023/05/29 12:50:13;;;;;;;;;0.00;0.00;;;;;;;;4635400;30;72349;-91
2023/05/29 12:56:44;;;;;;;;;;;;;;;;;;;;;
2023/05/29 13:00:08;;;;;;;;;;;;;;;;;;;;;
2023/05/29 13:09:12;;;;;;;;;;;;;;;;;;;;;
2023/05/29 13:12:00;;;;;;;;;3.00;3.00;;;;;;;;4679927;30;75009;-91
2023/05/29 13:15:02;;;;;;;;;;;;;;;;;;;;;
2023/05/29 13:28:18;;;;;;;;;;;;;;;;;;;;;
2023/05/29 13:31:14;;;;;;;;;;;;;;;;;;;;;
2023/05/29 14:06:58;;;;;;;;;;;;;;;;;;;;;
2023/05/29 15:26:03;;;;;;;;;3.00;2.00;;;;;;;;6297797;22;1475891;-91
2023/05/29 15:28:28;;;;;;;;;3.00;3.00;;;;;;;;6321507;22;45303;-89
2023/05/29 15:30:54;;;;;;;;;2.67;2.67;;;;;;;;6348492;22;45303;-89
2023/05/29 15:33:19;;;;;;;;;2.00;2.00;;;;;;;;6347874;22;47183;-91
2023/05/29 15:35:46;;;;;;;;;2.40;2.40;;;;;;;;6108832;22;5028960;-90
2023/05/29 15:38:12;;;;;;;;;1.67;1.67;;;;;;;;6208108;22;2004930;-88
2023/05/29 15:40:38;;;;;;;;;3.00;3.00;;;;;;;;6350933;22;45558;-88
2023/05/29 15:43:03;;;;;;;;;3.00;1.00;;;;;;;;6333344;22;45579;-88
2023/05/29 15:45:29;;;;;;;;;2.25;2.25;;;;;;;;5026177;22;7729726;-88
2023/05/29 15:47:54;;;;;;;;;2.00;2.00;;;;;;;;6334127;22;61632;-88
2023/05/29 15:50:20;;;;;;;;;1.33;1.33;;;;;;;;5703148;22;14226554;-88
2023/05/29 15:52:45;;;;;;;;;4.00;2.00;;;;;;;;6338391;22;45362;-88
2023/05/29 15:55:10;;;;;;;;;3.00;3.00;;;;;;;;5340651;22;8917447;-88
2023/05/29 15:57:36;;;;;;;;;1.33;1.33;;;;;;;;6315121;22;467428;-88
2023/05/29 16:00:01;;;;;;;;;2.33;2.33;;;;;;;;6342286;22;45272;-88
2023/05/29 16:02:27;;;;;;;;;2.00;2.00;;;;;;;;6343437;22;45439;-88
2023/05/29 16:04:52;;;;;;;;;5.00;4.00;;;;;;;;6295010;22;1148047;-87
2023/05/29 16:07:17;;;;;;;;;1.00;1.00;;;;;;;;6182506;22;3695271;-87
2023/05/29 16:09:43;;;;;;;;;2.00;1.25;;;;;;;;6187443;22;2981769;-87
2023/05/29 16:12:10;;;;;;;;;3.33;3.00;;;;;;;;6260566;22;935473;-88
2023/05/29 16:14:35;;;;;;;;;2.00;2.00;;;;;;;;6343270;22;45344;-88
2023/05/29 16:17:00;;;;;;;;;2.00;2.00;;;;;;;;5429266;22;9673866;-88
2023/05/29 16:19:25;;;;;;;;;3.00;3.00;;;;;;;;5638504;22;7875666;-88
2023/05/29 16:21:51;;;;;;;;;1.75;1.75;;;;;;;;6278816;22;1452631;-89
2023/05/29 16:24:16;;;;;;;;;2.00;2.00;;;;;;;;5560624;22;13819036;-89
2023/05/29 16:26:41;;;;;;;;;1.00;1.00;;;;;;;;6357952;22;45175;-89
2023/05/29 16:29:06;;;;;;;;;2.00;2.00;;;;;;;;6373440;22;45273;-89
2023/05/29 16:31:32;;;;;;;;;3.00;3.00;;;;;;;;6373789;22;45085;-89
2023/05/29 16:33:57;;;;;;;;;3.00;3.00;;;;;;;;6346751;22;45464;-88
2023/05/29 16:36:23;;;;;;;;;2.00;2.00;;;;;;;;6346322;22;45391;-90
2023/05/29 16:38:48;;;;;;;;;4.00;4.00;;;;;;;;6371296;22;45439;-89
2023/05/29 16:41:14;;;;;;;;;3.50;3.50;;;;;;;;6005746;22;3788575;-88
2023/05/29 16:43:39;;;;;;;;;2.50;2.50;;;;;;;;5536285;22;8457948;-89
2023/05/29 16:46:06;;;;;;;;;3.33;3.33;;;;;;;;6011646;22;4659738;-89
2023/05/29 16:48:31;;;;;;;;;4.00;4.00;;;;;;;;5581086;22;8610832;-89
2023/05/29 16:50:56;;;;;;;;;4.33;4.33;;;;;;;;6373442;22;45109;-88
2023/05/29 16:53:22;;;;;;;;;6.33;4.00;;;;;;;;6378648;22;45165;-88
2023/05/29 16:55:47;;;;;;;;;2.00;2.00;;;;;;;;5584470;22;8404163;-89
2023/05/29 16:58:12;;;;;;;;;4.00;4.00;;;;;;;;5863801;22;8734517;-88
2023/05/29 17:00:37;;;;;;;;;4.00;4.00;;;;;;;;5746524;22;8119716;-89
2023/05/29 17:03:04;;;;;;;;;5.00;5.00;;;;;;;;6187803;22;2726991;-88
2023/05/29 17:05:30;;;;;;;;;4.50;3.00;;;;;;;;6344924;22;45891;-88
2023/05/29 17:07:55;;;;;;;;;7.00;4.67;;;;;;;;6350200;22;132020;-89
2023/05/29 17:10:20;;;;;;;;;3.33;3.33;;;;;;;;6282080;22;885382;-88
2023/05/29 17:12:45;;;;;;;;;4.00;4.00;;;;;;;;5550808;22;4514731;-89
2023/05/29 17:15:11;;;;;;;;;3.25;3.25;;;;;;;;5776157;22;6608336;-88
2023/05/29 17:17:36;;;;;;;;;3.50;3.50;;;;;;;;4517523;22;11935181;-88
2023/05/29 17:20:03;;;;;;;;;3.40;3.40;;;;;;;;5763018;22;9731414;-89
2023/05/29 17:22:28;;;;;;;;;3.67;3.33;;;;;;;;6119226;22;3894611;-89
2023/05/29 17:24:53;;;;;;;;;2.80;2.80;;;;;;;;6318304;22;1021236;-88
2023/05/29 17:27:19;;;;;;;;;2.33;2.33;;;;;;;;4579682;22;13453365;-88
2023/05/29 17:29:50;;;;;;;;;3.00;3.00;;;;;;;;6264920;22;2403243;-88
2023/05/29 17:32:17;;;;;;;;;7.33;6.00;;;;;;;;6327422;22;1063766;-88
2023/05/29 17:34:42;;;;;;;;;2.00;2.00;;;;;;;;6338549;22;780434;-89
2023/05/29 17:37:07;;;;;;;;;1.00;1.00;;;;;;;;5174468;22;12853808;-88
2023/05/29 17:39:33;;;;;;;;;3.00;2.00;;;;;;;;6179382;22;3740968;-88
2023/05/29 17:41:58;;;;;;;;;2.00;2.00;;;;;;;;6371813;22;45242;-88
2023/05/29 17:44:28;;;;;;;;;3.00;3.00;;;;;;;;6370943;22;45516;-88
2023/05/29 17:46:54;;;;;;;;;3.00;3.00;;;;;;;;6370718;22;45586;-89
2023/05/29 17:49:19;;;;;;;;;3.33;3.33;;;;;;;;6373066;22;45285;-88
2023/05/29 17:51:45;;;;;;;;;3.33;3.33;;;;;;;;4822464;22;10833839;-88
2023/05/29 17:54:10;;;;;;;;;2.00;2.00;;;;;;;;4638231;22;13872960;-89
2023/05/29 17:56:45;;;;;;;;;4.00;4.00;;;;;;;;5337792;22;9668744;-89
2023/05/29 17:59:13;;;;;;;;;5.33;3.67;;;;;;;;5527884;22;4794827;-89
2023/05/29 18:01:38;;;;;;;;;5.33;4.33;;;;;;;;6034911;22;5842885;-89
2023/05/29 18:04:03;;;;;;;;;4.67;4.67;;;;;;;;6371603;22;45485;-88
2023/05/29 18:06:28;;;;;;;;;5.67;3.67;;;;;;;;6342014;22;115737;-88
2023/05/29 18:08:54;;;;;;;;;4.00;4.00;;;;;;;;6374523;22;45321;-88
2023/05/29 18:11:20;;;;;;;;;3.33;3.33;;;;;;;;6373580;22;45233;-88
2023/05/29 18:13:45;;;;;;;;;3.00;3.00;;;;;;;;6374492;22;46113;-88
2023/05/29 18:16:11;;;;;;;;;8.67;4.33;;;;;;;;6373095;22;45301;-88
2023/05/29 18:18:36;;;;;;;;;3.00;3.00;;;;;;;;6373184;22;45631;-88
2023/05/29 18:21:01;;;;;;;;;2.67;2.67;;;;;;;;6375300;22;45347;-88
2023/05/29 18:23:27;;;;;;;;;3.33;3.33;;;;;;;;6375216;22;46635;-88
2023/05/29 18:25:53;;;;;;;;;2.00;2.00;;;;;;;;6374188;22;45351;-88
2023/05/29 18:28:18;;;;;;;;;3.00;3.00;;;;;;;;6374771;22;45284;-88
2023/05/29 18:30:43;;;;;;;;;2.33;2.33;;;;;;;;6374280;22;45266;-88
2023/05/29 18:33:09;;;;;;;;;5.00;3.33;;;;;;;;6374006;22;46499;-87
2023/05/29 18:35:34;;;;;;;;;4.33;4.33;;;;;;;;6374459;22;45360;-88
2023/05/29 18:37:59;;;;;;;;;4.00;3.67;;;;;;;;6345357;22;45254;-88
2023/05/29 18:40:25;;;;;;;;;7.00;4.00;;;;;;;;6372797;22;45313;-88
2023/05/29 18:42:50;;;;;;;;;4.33;3.00;;;;;;;;6373709;22;46132;-89
2023/05/29 18:45:15;;;;;;;;;5.33;5.33;;;;;;;;6338178;22;183093;-88
2023/05/29 18:47:41;;;;;;;;;5.33;5.33;;;;;;;;6341953;22;111609;-88
2023/05/29 18:50:07;;;;;;;;;3.33;3.00;;;;;;;;6318866;22;683094;-88
2023/05/29 18:52:34;;;;;;;;;3.67;3.00;;;;;;;;6345817;22;47713;-88
2023/05/29 18:54:59;;;;;;;;;2.00;2.00;;;;;;;;6373198;22;45273;-88
2023/05/29 18:57:24;;;;;;;;;6.67;4.33;;;;;;;;6374510;22;45351;-88
2023/05/29 18:59:51;;;;;;;;;2.00;2.00;;;;;;;;6374994;22;45360;-89
2023/05/29 19:02:16;;;;;;;;;3.33;2.00;;;;;;;;6343324;22;45824;-88
2023/05/29 19:04:41;;;;;;;;;4.33;4.00;;;;;;;;6374398;22;45355;-88
2023/05/29 19:07:06;;;;;;;;;3.00;3.00;;;;;;;;6345701;22;45368;-88